createdAt,value
2018-08-19T00:02:26.234Z,95485.09
2018-08-19T00:05:08.500Z,95485.48
2018-08-19T00:07:39.864Z,95486.06
2018-08-19T00:10:09.777Z,95484.76
2018-08-19T00:12:45.085Z,95478.67
2018-08-19T00:15:15.459Z,95481.95
2018-08-19T00:17:46.202Z,95481.37
2018-08-19T00:20:16.128Z,95475.58
2018-08-19T00:22:46.214Z,95475.34
2018-08-19T00:25:26.686Z,95474.42
2018-08-19T00:27:57.161Z,95477.72
2018-08-19T00:30:26.868Z,95482.56
2018-08-19T00:32:56.697Z,95483.00
2018-08-19T00:35:27.560Z,95481.53
2018-08-19T00:37:58.097Z,95493.77
2018-08-19T00:40:28.144Z,95489.55
2018-08-19T00:42:58.306Z,95488.84
2018-08-19T00:45:28.704Z,95485.62
2018-08-19T00:47:59.382Z,95489.67
2018-08-19T00:50:29.188Z,95490.67
2018-08-19T00:52:58.862Z,95492.62
2018-08-19T00:55:32.061Z,95493.80
2018-08-19T00:58:02.779Z,95487.41
2018-08-19T01:00:32.429Z,95489.55
2018-08-19T01:03:02.160Z,95483.96
2018-08-19T01:05:32.110Z,95486.06
2018-08-19T01:08:03.207Z,95476.52
2018-08-19T01:10:33.093Z,95487.36
2018-08-19T01:13:03.424Z,95488.14
2018-08-19T01:15:33.211Z,95486.61
2018-08-19T01:18:04.828Z,95489.28
2018-08-19T01:20:34.715Z,95489.28
2018-08-19T01:23:04.599Z,95488.08
2018-08-19T01:25:34.426Z,95485.81
2018-08-19T01:28:04.480Z,95485.51
2018-08-19T01:30:34.250Z,95486.40
2018-08-19T01:33:03.912Z,95492.01
2018-08-19T01:40:33.269Z,95489.41
2018-08-19T01:43:03.002Z,95489.95
2018-08-19T01:45:32.813Z,95496.50
2018-08-19T01:48:02.634Z,95497.30
2018-08-19T01:50:32.412Z,95498.06
2018-08-19T01:53:02.086Z,95505.54
2018-08-19T01:55:32.449Z,95499.33
2018-08-19T01:58:02.338Z,95494.02
2018-08-19T02:00:31.977Z,95495.72
2018-08-19T02:03:06.507Z,95499.09
2018-08-19T02:05:36.288Z,95507.89
2018-08-19T02:08:07.449Z,95509.23
2018-08-19T02:10:37.397Z,95507.97
2018-08-19T02:13:07.199Z,95503.48
2018-08-19T02:15:36.903Z,95491.13
2018-08-19T02:18:08.179Z,95498.43
2018-08-19T02:20:42.783Z,95499.00
2018-08-19T02:23:13.725Z,95502.38
2018-08-19T02:25:47.273Z,95504.37
2018-08-19T02:28:22.693Z,95503.51
2018-08-19T02:30:57.332Z,95504.27
2018-08-19T02:33:27.247Z,95497.88
2018-08-19T02:36:00.996Z,95500.69
2018-08-19T02:38:30.895Z,95502.92
2018-08-19T02:41:00.471Z,95498.65
2018-08-19T02:43:30.227Z,95504.87
2018-08-19T02:45:59.923Z,95508.10
2018-08-19T02:48:43.152Z,95458.25
2018-08-19T02:51:15.010Z,95499.97
2018-08-19T02:53:46.084Z,95503.10
2018-08-19T02:56:16.764Z,95508.81
2018-08-19T02:58:48.021Z,95505.42
2018-08-19T03:01:18.995Z,95507.36
2018-08-19T03:03:48.798Z,95509.30
2018-08-19T03:06:18.455Z,95505.09
2018-08-19T03:09:00.033Z,95501.81
2018-08-19T03:11:29.942Z,95506.64
2018-08-19T03:13:59.625Z,95517.35
2018-08-19T03:16:29.408Z,95539.78
2018-08-19T03:19:00.298Z,95524.08
2018-08-19T03:21:29.990Z,95517.94
2018-08-19T03:23:59.726Z,95517.34
2018-08-19T03:26:31.542Z,95513.92
2018-08-19T03:29:07.373Z,95526.16
2018-08-19T03:31:37.263Z,95531.61
2018-08-19T03:34:07.069Z,95532.50
2018-08-19T03:36:37.078Z,95539.05
2018-08-19T03:39:17.495Z,95530.85
2018-08-19T03:41:47.561Z,95537.13
2018-08-19T03:44:18.302Z,95533.31
2018-08-19T03:46:48.003Z,95532.48
2018-08-19T03:49:18.844Z,95536.92
2018-08-19T03:51:48.618Z,95533.20
2018-08-19T03:54:18.282Z,95533.54
2018-08-19T03:56:47.901Z,95531.73
2018-08-19T03:59:17.593Z,95537.98
2018-08-19T04:01:47.381Z,95540.89
2018-08-19T04:04:18.311Z,95542.66
2018-08-19T04:06:48.001Z,95549.19
2018-08-19T04:09:17.688Z,95548.16
2018-08-19T04:11:56.961Z,95550.16
2018-08-19T04:14:29.924Z,95551.64
2018-08-19T04:17:01.161Z,95549.25
2018-08-19T04:19:31.926Z,95553.44
2018-08-19T04:22:04.080Z,95553.32
2018-08-19T04:24:34.530Z,95553.19
2018-08-19T04:27:09.005Z,95370.83
2018-08-19T04:29:40.396Z,95561.31
2018-08-19T04:32:18.604Z,95565.37
2018-08-19T04:34:48.413Z,95563.13
2018-08-19T04:37:18.010Z,95561.23
2018-08-19T04:39:48.867Z,95562.02
2018-08-19T04:42:18.676Z,95557.86
2018-08-19T04:44:48.322Z,95555.47
2018-08-19T04:47:30.457Z,95551.19
2018-08-19T04:50:00.663Z,95554.34
2018-08-19T04:52:32.984Z,95553.91
2018-08-19T04:55:02.879Z,95543.09
2018-08-19T04:57:32.674Z,95549.06
2018-08-19T05:00:02.368Z,95551.61
2018-08-19T05:02:32.023Z,95552.32
2018-08-19T05:05:01.678Z,95555.11
2018-08-19T05:07:31.564Z,95552.48
2018-08-19T05:10:01.435Z,95560.03
2018-08-19T05:12:31.229Z,95561.55
2018-08-19T05:15:01.013Z,95562.14
2018-08-19T05:17:30.949Z,95562.37
2018-08-19T05:20:12.255Z,95556.72
2018-08-19T05:22:43.536Z,95560.08
2018-08-19T05:25:13.434Z,95557.59
2018-08-19T05:27:44.520Z,95561.36
2018-08-19T05:30:15.130Z,95573.72
2018-08-19T05:32:49.883Z,95562.19
2018-08-19T05:35:19.745Z,95561.52
2018-08-19T05:37:49.443Z,95565.09
2018-08-19T05:40:19.997Z,95567.30
2018-08-19T05:42:49.820Z,95566.52
2018-08-19T05:45:19.832Z,95568.27
2018-08-19T05:48:00.334Z,95555.86
2018-08-19T05:50:30.929Z,95562.88
2018-08-19T05:53:00.725Z,95555.52
2018-08-19T05:55:30.436Z,95559.39
2018-08-19T05:58:00.157Z,95557.06
2018-08-19T06:00:30.601Z,95559.47
2018-08-19T06:03:02.259Z,95559.05
2018-08-19T06:05:32.087Z,95559.11
2018-08-19T06:08:07.124Z,95554.11
2018-08-19T06:10:37.636Z,95556.48
2018-08-19T06:13:08.263Z,95554.84
2018-08-19T06:15:38.290Z,95544.05
2018-08-19T06:18:08.244Z,95546.80
2018-08-19T06:20:38.425Z,95547.92
2018-08-19T06:23:08.084Z,95542.92
2018-08-19T06:25:37.953Z,95543.56
2018-08-19T06:28:07.750Z,95539.75
2018-08-19T06:30:37.520Z,95545.80
2018-08-19T06:33:07.400Z,95537.36
2018-08-19T06:35:37.247Z,95531.14
2018-08-19T06:38:07.065Z,95537.02
2018-08-19T06:40:36.803Z,95537.69
2018-08-19T06:43:06.630Z,95539.95
2018-08-19T06:45:36.454Z,95536.92
2018-08-19T06:48:06.478Z,95540.34
2018-08-19T06:50:36.793Z,95537.70
2018-08-19T06:53:06.533Z,95533.47
2018-08-19T06:55:36.271Z,95531.42
2018-08-19T06:58:06.041Z,95534.66
2018-08-19T07:00:35.993Z,95533.05
2018-08-19T07:03:06.861Z,95520.16
2018-08-19T07:05:36.679Z,95520.80
2018-08-19T07:08:06.437Z,95525.47
2018-08-19T07:10:37.903Z,95522.58
2018-08-19T07:13:11.790Z,95522.53
2018-08-19T07:15:42.810Z,95522.09
2018-08-19T07:18:16.709Z,95527.34
2018-08-19T07:20:46.912Z,95525.83
2018-08-19T07:23:16.554Z,95522.92
2018-08-19T07:25:46.972Z,95522.06
2018-08-19T07:28:18.080Z,95518.95
2018-08-19T07:30:48.717Z,95517.95
2018-08-19T07:33:18.319Z,95523.89
2018-08-19T07:35:48.028Z,95526.64
2018-08-19T07:38:17.815Z,95524.52
2018-08-19T07:40:47.486Z,95522.17
2018-08-19T07:43:17.203Z,95518.39
2018-08-19T07:45:46.890Z,95523.48
2018-08-19T07:48:16.579Z,95509.56
2018-08-19T07:50:46.234Z,95514.51
2018-08-19T07:53:15.969Z,95512.41
2018-08-19T07:55:45.627Z,95509.23
2018-08-19T07:58:18.940Z,95502.45
2018-08-19T08:00:49.797Z,95501.21
2018-08-19T08:03:19.274Z,95500.70
2018-08-19T08:05:49.121Z,95494.08
2018-08-19T08:08:18.845Z,95488.25
2018-08-19T08:10:48.483Z,95483.98
2018-08-19T08:13:18.391Z,95479.07
2018-08-19T08:15:55.895Z,95475.55
2018-08-19T08:18:26.478Z,95475.76
2018-08-19T08:21:15.586Z,95474.50
2018-08-19T08:23:45.831Z,95480.66
2018-08-19T08:26:16.214Z,95471.83
2018-08-19T08:28:53.054Z,95464.70
2018-08-19T08:31:23.494Z,95465.86
2018-08-19T08:33:54.599Z,95465.97
2018-08-19T08:36:25.011Z,95477.66
2018-08-19T08:38:55.371Z,95458.82
2018-08-19T08:41:25.027Z,95459.89
2018-08-19T08:43:54.665Z,95461.52
2018-08-19T08:46:24.396Z,95460.58
2018-08-19T08:48:54.036Z,95464.23
2018-08-19T08:51:23.783Z,95459.50
2018-08-19T08:53:53.637Z,95458.42
2018-08-19T08:56:23.593Z,95466.23
2018-08-19T08:58:53.415Z,95458.16
2018-08-19T09:01:23.109Z,95457.19
2018-08-19T09:03:53.009Z,95455.02
2018-08-19T09:06:28.945Z,95449.75
2018-08-19T09:08:59.104Z,95448.88
2018-08-19T09:11:29.035Z,95444.66
2018-08-19T09:13:58.852Z,95446.35
2018-08-19T09:16:28.748Z,95442.52
2018-08-19T09:18:58.502Z,95446.85
2018-08-19T09:21:28.382Z,95443.58
2018-08-19T09:23:58.209Z,95442.21
2018-08-19T09:26:27.913Z,95431.80
2018-08-19T09:28:57.617Z,95428.74
2018-08-19T09:31:27.421Z,95425.08
2018-08-19T09:33:57.275Z,95424.53
2018-08-19T09:36:27.159Z,95424.86
2018-08-19T09:38:56.873Z,95416.58
2018-08-19T09:41:26.687Z,95421.92
2018-08-19T09:43:56.440Z,95418.95
2018-08-19T09:46:26.149Z,95413.88
2018-08-19T09:48:55.784Z,95413.14
2018-08-19T09:51:25.668Z,95409.42
2018-08-19T09:53:55.420Z,95407.78
2018-08-19T09:56:29.264Z,95404.58
2018-08-19T09:59:04.925Z,95404.19
2018-08-19T10:01:39.881Z,95400.89
2018-08-19T10:04:14.493Z,95396.14
2018-08-19T10:06:44.221Z,95398.09
2018-08-19T10:09:14.286Z,95395.45
2018-08-19T10:11:44.040Z,95396.88
2018-08-19T10:14:13.918Z,95386.60
2018-08-19T10:16:46.689Z,95386.33
2018-08-19T10:19:17.364Z,95384.94
2018-08-19T10:21:47.462Z,95381.49
2018-08-19T10:24:24.641Z,95378.27
2018-08-19T10:26:54.317Z,95369.75
2018-08-19T10:29:25.243Z,95377.53
2018-08-19T10:31:59.928Z,95366.91
2018-08-19T10:34:34.049Z,95372.88
2018-08-19T10:37:34.404Z,95373.83
2018-08-19T10:40:04.006Z,95376.41
2018-08-19T10:42:33.821Z,95369.60
2018-08-19T10:45:09.707Z,95366.23
2018-08-19T10:47:39.543Z,95359.97
2018-08-19T10:50:09.625Z,95366.23
2018-08-19T10:52:43.059Z,95363.23
2018-08-19T10:55:14.007Z,95362.35
2018-08-19T10:57:44.431Z,95364.51
2018-08-19T11:00:17.945Z,95360.05
2018-08-19T11:02:47.617Z,95365.36
2018-08-19T11:05:17.404Z,95362.41
2018-08-19T11:07:48.341Z,95362.89
2018-08-19T11:10:23.848Z,95361.80
2018-08-19T11:12:56.033Z,95365.08
2018-08-19T11:15:54.057Z,95358.39
2018-08-19T11:18:41.506Z,95355.22
2018-08-19T11:21:14.548Z,95356.73
2018-08-19T11:23:46.119Z,95344.78
2018-08-19T11:26:15.952Z,95345.36
2018-08-19T11:28:48.896Z,95352.05
2018-08-19T11:31:25.393Z,95350.20
2018-08-19T11:33:57.569Z,95353.97
2018-08-19T11:36:33.728Z,95353.59
2018-08-19T11:39:03.662Z,95338.70
2018-08-19T11:41:34.883Z,95349.47
2018-08-19T11:44:16.181Z,95344.77
2018-08-19T11:46:46.287Z,95341.40
2018-08-19T11:49:17.524Z,95345.79
2018-08-19T11:51:56.716Z,95333.53
2018-08-19T11:54:27.529Z,95340.22
2018-08-19T11:57:08.348Z,95330.00
2018-08-19T11:59:46.569Z,95339.84
2018-08-19T12:02:19.824Z,95333.77
2018-08-19T12:04:50.608Z,95341.75
2018-08-19T12:07:20.835Z,95340.88
2018-08-19T12:09:58.361Z,95339.22
2018-08-19T12:12:43.834Z,95330.52
2018-08-19T12:15:13.773Z,95319.26
2018-08-19T12:17:43.541Z,95313.48
2018-08-19T12:20:13.508Z,95308.55
2018-08-19T12:22:44.329Z,95317.58
2018-08-19T12:25:14.502Z,95310.89
2018-08-19T12:27:44.077Z,95302.17
2018-08-19T12:30:16.178Z,95301.27
2018-08-19T12:32:45.936Z,95297.93
2018-08-19T12:35:15.951Z,95297.85
2018-08-19T12:37:45.637Z,95293.44
2018-08-19T12:40:15.284Z,95298.95
2018-08-19T12:42:49.929Z,95289.38
2018-08-19T12:45:20.078Z,95293.14
2018-08-19T12:47:49.680Z,95290.53
2018-08-19T12:50:19.527Z,95288.96
2018-08-19T12:52:50.641Z,95281.98
2018-08-19T12:55:21.571Z,95285.34
2018-08-19T12:57:56.392Z,95282.05
2018-08-19T13:00:26.956Z,95281.64
2018-08-19T13:02:56.949Z,95276.93
2018-08-19T13:05:27.523Z,95278.48
2018-08-19T13:07:57.355Z,95284.08
2018-08-19T13:10:34.889Z,95282.57
2018-08-19T13:13:04.717Z,95283.48
2018-08-19T13:15:35.047Z,95277.85
2018-08-19T13:18:04.622Z,95281.03
2018-08-19T13:20:34.386Z,95279.51
2018-08-19T13:23:05.101Z,95287.78
2018-08-19T13:25:35.763Z,95293.78
2018-08-19T13:28:05.591Z,95293.56
2018-08-19T13:30:35.311Z,95291.20
2018-08-19T13:33:05.055Z,95295.34
2018-08-19T13:35:34.882Z,95286.08
2018-08-19T13:38:04.701Z,95287.79
2018-08-19T13:40:34.520Z,95296.38
2018-08-19T13:43:04.408Z,95278.96
2018-08-19T13:45:34.153Z,95275.65
2018-08-19T13:48:04.131Z,95274.53
2018-08-19T13:50:33.876Z,95275.16
2018-08-19T13:53:03.607Z,95264.94
2018-08-19T13:55:33.428Z,95268.56
2018-08-19T13:58:03.321Z,95263.85
2018-08-19T14:00:34.005Z,95260.61
2018-08-19T14:03:03.812Z,95255.13
2018-08-19T14:05:34.426Z,95253.23
2018-08-19T14:08:04.196Z,95251.54
2018-08-19T14:10:33.870Z,95254.77
2018-08-19T14:13:03.676Z,95245.07
2018-08-19T14:15:33.470Z,95241.73
2018-08-19T14:18:03.196Z,95232.94
2018-08-19T14:20:32.819Z,95235.09
2018-08-19T14:23:02.402Z,95237.65
2018-08-19T14:25:32.306Z,95022.38
2018-08-19T14:28:02.345Z,95238.75
2018-08-19T14:30:32.263Z,95233.91
2018-08-19T14:33:01.985Z,95245.19
2018-08-19T14:35:31.760Z,95247.53
2018-08-19T14:38:01.588Z,95250.92
2018-08-19T14:40:31.483Z,95241.27
2018-08-19T14:43:01.272Z,95239.94
2018-08-19T14:45:31.117Z,95246.42
2018-08-19T14:48:00.908Z,95244.39
2018-08-19T14:50:30.680Z,95242.84
2018-08-19T14:53:00.423Z,95238.64
2018-08-19T14:55:30.289Z,95237.42
2018-08-19T14:58:00.107Z,95241.33
2018-08-19T15:00:29.964Z,95234.95
2018-08-19T15:02:59.753Z,95234.01
2018-08-19T15:05:29.491Z,95232.98
2018-08-19T15:08:07.005Z,95231.39
2018-08-19T15:10:37.088Z,95231.39
2018-08-19T15:13:06.949Z,95224.28
2018-08-19T15:15:36.865Z,95224.85
2018-08-19T15:18:06.863Z,95228.01
2018-08-19T15:20:37.815Z,95225.75
2018-08-19T15:23:18.839Z,95226.74
2018-08-19T15:25:49.660Z,95090.85
2018-08-19T15:28:19.961Z,95234.19
2018-08-19T15:30:49.801Z,95233.03
2018-08-19T15:33:19.725Z,95233.20
2018-08-19T15:35:50.361Z,95231.46
2018-08-19T15:38:20.284Z,95234.20
2018-08-19T15:40:50.672Z,95229.08
2018-08-19T15:43:20.340Z,95229.41
2018-08-19T15:45:51.081Z,95232.17
2018-08-19T15:48:20.893Z,95229.61
2018-08-19T15:50:54.037Z,95234.55
2018-08-19T15:53:23.783Z,95238.91
2018-08-19T15:55:54.809Z,95239.86
2018-08-19T15:58:24.890Z,95235.77
2018-08-19T16:00:54.703Z,95240.45
2018-08-19T16:03:24.536Z,95239.66
2018-08-19T16:05:55.620Z,95240.06
2018-08-19T16:08:25.545Z,95240.26
2018-08-19T16:10:55.490Z,95244.96
2018-08-19T16:13:25.348Z,95239.47
2018-08-19T16:15:55.194Z,95246.08
2018-08-19T16:18:25.026Z,95249.17
2018-08-19T16:20:59.832Z,95247.63
2018-08-19T16:23:29.838Z,95251.16
2018-08-19T16:26:00.745Z,95252.66
2018-08-19T16:28:30.730Z,95257.31
2018-08-19T16:31:00.658Z,95261.04
2018-08-19T16:33:30.581Z,95266.58
2018-08-19T16:36:00.717Z,95271.31
2018-08-19T16:38:30.589Z,95261.87
2018-08-19T16:41:00.803Z,95271.77
2018-08-19T16:43:30.753Z,95266.61
2018-08-19T16:46:00.560Z,95269.83
2018-08-19T16:48:30.434Z,95274.14
2018-08-19T16:51:00.349Z,95275.75
2018-08-19T16:53:30.128Z,95272.08
2018-08-19T16:55:59.992Z,95276.70
2018-08-19T16:58:29.767Z,95274.17
2018-08-19T17:00:59.644Z,95281.13
2018-08-19T17:03:34.889Z,95275.23
2018-08-19T17:06:07.626Z,95273.63
2018-08-19T17:08:37.512Z,95278.50
2018-08-19T17:11:07.658Z,95281.52
2018-08-19T17:13:37.479Z,95277.72
2018-08-19T17:16:07.277Z,95283.20
2018-08-19T17:18:36.974Z,95289.00
2018-08-19T17:21:06.775Z,95289.98
2018-08-19T17:23:36.688Z,95301.64
2018-08-19T17:26:13.464Z,95303.34
2018-08-19T17:28:43.449Z,95304.38
2018-08-19T17:31:13.229Z,95304.44
2018-08-19T17:33:42.993Z,95305.68
2018-08-19T17:36:17.142Z,95312.67
2018-08-19T17:38:47.010Z,95309.02
2018-08-19T17:41:16.588Z,95312.80
2018-08-19T17:43:46.267Z,95314.81
2018-08-19T17:46:17.500Z,95314.97
2018-08-19T17:48:47.265Z,95320.17
2018-08-19T17:51:35.707Z,95318.22
2018-08-19T17:54:15.206Z,95324.08
2018-08-19T17:56:44.843Z,95327.02
2018-08-19T17:59:14.685Z,95325.95
2018-08-19T18:01:45.108Z,95327.72
2018-08-19T18:04:14.877Z,95336.75
2018-08-19T18:06:44.602Z,95331.26
2018-08-19T18:09:16.933Z,95327.65
2018-08-19T18:11:53.428Z,95336.80
2018-08-19T18:14:24.290Z,95337.44
2018-08-19T18:16:54.057Z,95336.02
2018-08-19T18:19:23.736Z,95344.23
2018-08-19T18:21:53.565Z,95337.22
2018-08-19T18:24:24.074Z,95353.59
2018-08-19T18:26:53.810Z,95352.69
2018-08-19T18:29:23.797Z,95352.91
2018-08-19T18:31:53.646Z,95367.94
2018-08-19T18:34:23.425Z,95354.86
2018-08-19T18:36:53.172Z,95362.41
2018-08-19T18:39:22.923Z,95356.98
2018-08-19T18:41:52.767Z,95354.35
2018-08-19T18:44:22.585Z,95361.59
2018-08-19T18:46:52.344Z,95364.19
2018-08-19T18:49:24.244Z,95363.38
2018-08-19T18:51:55.339Z,95368.01
2018-08-19T18:54:30.190Z,95369.33
2018-08-19T18:57:06.056Z,95365.31
2018-08-19T18:59:35.871Z,95369.80
2018-08-19T19:02:05.699Z,95370.92
2018-08-19T19:04:36.891Z,95372.36
2018-08-19T19:07:06.755Z,95367.48
2018-08-19T19:09:41.659Z,95367.19
2018-08-19T19:12:11.477Z,95368.11
2018-08-19T19:14:42.127Z,95366.74
2018-08-19T19:17:11.948Z,95367.44
2018-08-19T19:19:46.689Z,95371.87
2018-08-19T19:22:16.564Z,95371.62
2018-08-19T19:24:46.983Z,95378.61
2018-08-19T19:27:16.763Z,95377.69
2018-08-19T19:29:50.862Z,95380.93
2018-08-19T19:32:27.172Z,95382.87
2018-08-19T19:35:00.902Z,95384.89
2018-08-19T19:37:30.442Z,95382.45
2018-08-19T19:40:05.987Z,95393.92
2018-08-19T19:42:35.748Z,95392.45
2018-08-19T19:45:07.570Z,95391.50
2018-08-19T19:47:37.308Z,95394.50
2018-08-19T19:50:08.701Z,95393.80
2018-08-19T19:52:41.479Z,95396.52
2018-08-19T19:55:12.417Z,95406.55
2018-08-19T19:57:42.048Z,95402.06
2018-08-19T20:00:11.805Z,95404.50
2018-08-19T20:02:41.541Z,95407.28
2018-08-19T20:05:16.348Z,95416.35
2018-08-19T20:07:46.057Z,95413.84
2018-08-19T20:10:19.864Z,95413.80
2018-08-19T20:12:49.528Z,95415.33
2018-08-19T20:15:19.394Z,95428.25
2018-08-19T20:17:49.076Z,95432.27
2018-08-19T20:20:18.882Z,95427.20
2018-08-19T20:22:48.637Z,95430.47
2018-08-19T20:25:18.402Z,95429.48
2018-08-19T20:27:49.541Z,95430.64
2018-08-19T20:30:19.299Z,95428.26
2018-08-19T20:32:49.162Z,95428.95
2018-08-19T20:35:19.532Z,95422.14
2018-08-19T20:37:49.324Z,95425.45
2018-08-19T20:40:19.164Z,95431.14
2018-08-19T20:42:48.858Z,95430.84
2018-08-19T20:45:18.565Z,95430.81
2018-08-19T20:47:48.349Z,95432.05
2018-08-19T20:50:18.157Z,95421.42
2018-08-19T20:52:49.447Z,95424.01
2018-08-19T20:55:19.221Z,95422.88
2018-08-19T20:57:48.916Z,95425.22
2018-08-19T21:00:18.601Z,95422.94
2018-08-19T21:02:48.313Z,95420.53
2018-08-19T21:05:18.092Z,95417.28
2018-08-19T21:07:47.810Z,95416.09
2018-08-19T21:10:17.585Z,95417.03
2018-08-19T21:12:47.414Z,95420.17
2018-08-19T21:15:22.591Z,95420.93
2018-08-19T21:17:52.456Z,95419.00
2018-08-19T21:20:22.124Z,95416.72
2018-08-19T21:22:52.148Z,95421.47
2018-08-19T21:25:22.276Z,95418.08
2018-08-19T21:27:51.884Z,95416.75
2018-08-19T21:30:21.597Z,95415.78
2018-08-19T21:32:51.300Z,95416.86
2018-08-19T21:35:21.003Z,95418.39
2018-08-19T21:37:50.726Z,95416.05
2018-08-19T21:40:27.238Z,95421.34
2018-08-19T21:42:58.532Z,95416.52
2018-08-19T21:45:29.196Z,95405.83
2018-08-19T21:47:59.040Z,95413.39
2018-08-19T21:50:28.828Z,95407.89
2018-08-19T21:53:01.960Z,95409.38
2018-08-19T21:55:35.229Z,95410.03
2018-08-19T21:58:05.435Z,95407.47
2018-08-19T22:00:39.090Z,95413.86
2018-08-19T22:03:18.450Z,95405.80
2018-08-19T22:07:13.164Z,95406.03
2018-08-19T22:09:42.873Z,95399.03
2018-08-19T22:12:12.559Z,95392.05
2018-08-19T22:14:42.351Z,95397.89
2018-08-19T22:17:12.270Z,95399.81
2018-08-19T22:19:42.077Z,95390.03
2018-08-19T22:22:11.943Z,95394.00
2018-08-19T22:24:41.658Z,95389.66
2018-08-19T22:27:17.516Z,95390.95
2018-08-19T22:29:47.349Z,95397.63
2018-08-19T22:32:17.230Z,95393.25
2018-08-19T22:34:47.395Z,95391.64
2018-08-19T22:37:17.248Z,95391.27
2018-08-19T22:39:47.688Z,95399.73
2018-08-19T22:42:17.420Z,95391.20
2018-08-19T22:44:48.297Z,95397.20
2018-08-19T22:47:18.069Z,95393.72
2018-08-19T22:49:47.841Z,95395.17
2018-08-19T22:52:23.753Z,95399.66
2018-08-19T22:54:57.520Z,95395.48
2018-08-19T22:57:27.940Z,95391.45
2018-08-19T22:59:57.591Z,95389.72
2018-08-19T23:02:27.519Z,95394.45
2018-08-19T23:04:57.876Z,95393.27
2018-08-19T23:07:27.773Z,95391.58
2018-08-19T23:09:57.503Z,95385.98
2018-08-19T23:12:27.201Z,95381.94
2018-08-19T23:15:07.524Z,95381.91
2018-08-19T23:17:37.326Z,95380.13
2018-08-19T23:20:07.240Z,95381.67
2018-08-19T23:22:36.936Z,95379.38
2018-08-19T23:25:07.617Z,95381.11
2018-08-19T23:27:37.324Z,95378.78
2018-08-19T23:30:07.075Z,95375.79
2018-08-19T23:32:36.831Z,95370.52
2018-08-19T23:35:06.544Z,95375.65
2018-08-19T23:37:36.262Z,95382.80
2018-08-19T23:40:06.029Z,95378.22
2018-08-19T23:42:35.870Z,95372.38
2018-08-19T23:45:05.780Z,95374.15
2018-08-19T23:47:35.521Z,95371.25
2018-08-19T23:50:05.588Z,95377.41
2018-08-19T23:52:35.245Z,95375.55
2018-08-19T23:55:05.387Z,95359.77
2018-08-19T23:57:35.048Z,95362.85
